Terminal Aerodrome Forecast
Issued by NWS Wilmington, NC

Home | Current Version | Previous Version | Text Only | Print | Product List | Glossary On
Versions: 1 2 3 4 5 6 7 8 9 10 11 12
000
FTUS42 KILM 292300
TAFLBT
TAF
KLBT 292320Z 3000/3024 15003KT P6SM SKC
     FM300600 00000KT 3SM BR SCT005
     FM300900 00000KT 1SM BR BKN005
     FM301300 14006KT P6SM SCT045=

USA.gov is the U.S. government's official web portal to all federal, state and local government web resources and services.